Tarko-Sale, Russia
Current Conditions -  °F | °C
As of 7:00 PM on Saturday 22 Nov 2014 (Local Time) from USNN Reporting Station
Clear Clear  
Wind Chill: -16°   Ceiling: Unl
Heat Index: -6°   Visibility: 6mi
Dew Point: -13°   Wind: 4mph
Humidity: 71%   Direction: 340°NNW
Pressure: 29.85"   Gusts: NA
Location:  64.92°N, 77.79°E
Report Text: USNN 221400Z 34002MPS CAVOK M21/M25 Q1011 NOSIG RMK QFE7532132//56
Loading
Personal Weather Stations






























Interactive Weather Map New forecast layout! Learn more

10-Day Weather Forecast

Advertisements
Track Severe Weather on mobile